Chicopee, Massachusetts
Current Conditions -  °F | °C
As of 9:56 PM on Saturday 25 Oct 2014 (Local Time) from KCEF Reporting Station
Light Rain Light Rain  
Wind Chill: 57°   Ceiling: 7000
Heat Index: 57°   Visibility: 10mi
Dew Point: 43°   Wind: 10mph
Humidity: 59%   Direction: 210°SSW
Pressure: 29.54"   Gusts: NA
Location:  42.15°N, 72.61°W
Report Text: KCEF 260156Z AUTO 21009KT 10SM -RA BKN070 OVC090 14/06 A2954 RMK AO2
Loading
Personal Weather Stations






























Interactive Weather Map
Tropical Storm Tracking
New forecast layout! Learn more

10-Day Weather Forecast

Advertisements
Track Severe Weather on mobile